sensor_id;sensor_type;location;lat;lon;timestamp;P1;durP1;ratioP1;P2;durP2;ratioP2
62572;SDS011;48626;51.678;5.806;2023-11-21T00:02:14;17.20;;;8.88;;
62572;SDS011;48626;51.678;5.806;2023-11-21T00:04:40;15.43;;;8.10;;
62572;SDS011;48626;51.678;5.806;2023-11-21T00:07:05;14.68;;;8.57;;
62572;SDS011;48626;51.678;5.806;2023-11-21T00:09:31;20.60;;;9.13;;
62572;SDS011;48626;51.678;5.806;2023-11-21T00:11:58;22.67;;;10.00;;
62572;SDS011;48626;51.678;5.806;2023-11-21T00:14:27;16.38;;;8.95;;
62572;SDS011;48626;51.678;5.806;2023-11-21T00:16:53;17.73;;;8.68;;
62572;SDS011;48626;51.678;5.806;2023-11-21T00:19:19;18.33;;;8.55;;
62572;SDS011;48626;51.678;5.806;2023-11-21T00:21:44;19.35;;;8.60;;
62572;SDS011;48626;51.678;5.806;2023-11-21T00:24:11;14.88;;;8.57;;
62572;SDS011;48626;51.678;5.806;2023-11-21T00:26:39;19.63;;;9.52;;
62572;SDS011;48626;51.678;5.806;2023-11-21T00:29:05;20.63;;;8.90;;
62572;SDS011;48626;51.678;5.806;2023-11-21T00:31:36;19.83;;;8.52;;
62572;SDS011;48626;51.678;5.806;2023-11-21T00:34:05;15.43;;;8.55;;
62572;SDS011;48626;51.678;5.806;2023-11-21T00:36:31;18.23;;;9.15;;
62572;SDS011;48626;51.678;5.806;2023-11-21T00:38:57;20.23;;;9.60;;
62572;SDS011;48626;51.678;5.806;2023-11-21T00:41:24;24.02;;;9.05;;
62572;SDS011;48626;51.678;5.806;2023-11-21T00:43:52;21.50;;;9.13;;
62572;SDS011;48626;51.678;5.806;2023-11-21T00:46:18;18.92;;;9.23;;
62572;SDS011;48626;51.678;5.806;2023-11-21T00:48:44;17.98;;;9.00;;
62572;SDS011;48626;51.678;5.806;2023-11-21T00:51:10;21.88;;;9.10;;
62572;SDS011;48626;51.678;5.806;2023-11-21T00:53:35;17.58;;;9.27;;
62572;SDS011;48626;51.678;5.806;2023-11-21T00:56:01;21.25;;;10.27;;
62572;SDS011;48626;51.678;5.806;2023-11-21T00:58:27;18.10;;;9.88;;
62572;SDS011;48626;51.678;5.806;2023-11-21T01:00:53;20.50;;;9.52;;
62572;SDS011;48626;51.678;5.806;2023-11-21T01:03:19;26.88;;;9.80;;
62572;SDS011;48626;51.678;5.806;2023-11-21T01:05:44;19.58;;;8.75;;
62572;SDS011;48626;51.678;5.806;2023-11-21T01:08:11;16.98;;;9.48;;
62572;SDS011;48626;51.678;5.806;2023-11-21T01:10:37;19.40;;;9.65;;
62572;SDS011;48626;51.678;5.806;2023-11-21T01:13:03;18.50;;;8.35;;
62572;SDS011;48626;51.678;5.806;2023-11-21T01:15:32;18.60;;;9.38;;
62572;SDS011;48626;51.678;5.806;2023-11-21T01:17:59;24.13;;;9.75;;
62572;SDS011;48626;51.678;5.806;2023-11-21T01:20:24;21.95;;;10.02;;
62572;SDS011;48626;51.678;5.806;2023-11-21T01:22:51;20.58;;;10.27;;
62572;SDS011;48626;51.678;5.806;2023-11-21T01:25:18;26.25;;;9.77;;
62572;SDS011;48626;51.678;5.806;2023-11-21T01:27:46;17.92;;;9.80;;
62572;SDS011;48626;51.678;5.806;2023-11-21T01:30:11;23.70;;;10.63;;
62572;SDS011;48626;51.678;5.806;2023-11-21T01:32:37;22.83;;;10.20;;
62572;SDS011;48626;51.678;5.806;2023-11-21T01:35:04;19.10;;;10.10;;
62572;SDS011;48626;51.678;5.806;2023-11-21T01:37:31;18.35;;;9.75;;
62572;SDS011;48626;51.678;5.806;2023-11-21T01:39:58;21.08;;;10.30;;
62572;SDS011;48626;51.678;5.806;2023-11-21T01:42:24;23.20;;;11.55;;
62572;SDS011;48626;51.678;5.806;2023-11-21T01:44:49;17.83;;;9.50;;
62572;SDS011;48626;51.678;5.806;2023-11-21T01:47:15;20.05;;;10.50;;
62572;SDS011;48626;51.678;5.806;2023-11-21T01:49:45;21.42;;;10.75;;
62572;SDS011;48626;51.678;5.806;2023-11-21T01:52:11;22.17;;;10.93;;
62572;SDS011;48626;51.678;5.806;2023-11-21T01:54:37;23.60;;;10.63;;
62572;SDS011;48626;51.678;5.806;2023-11-21T01:57:03;19.42;;;10.43;;
62572;SDS011;48626;51.678;5.806;2023-11-21T01:59:35;21.42;;;10.95;;
62572;SDS011;48626;51.678;5.806;2023-11-21T02:04:31;30.48;;;11.05;;
62572;SDS011;48626;51.678;5.806;2023-11-21T02:06:57;24.80;;;10.45;;
62572;SDS011;48626;51.678;5.806;2023-11-21T02:09:27;23.77;;;12.00;;
62572;SDS011;48626;51.678;5.806;2023-11-21T02:11:54;33.88;;;12.77;;
62572;SDS011;48626;51.678;5.806;2023-11-21T02:14:21;27.25;;;12.75;;
62572;SDS011;48626;51.678;5.806;2023-11-21T02:16:47;23.88;;;11.80;;
62572;SDS011;48626;51.678;5.806;2023-11-21T02:19:20;21.40;;;11.43;;
62572;SDS011;48626;51.678;5.806;2023-11-21T02:21:54;27.90;;;11.60;;
62572;SDS011;48626;51.678;5.806;2023-11-21T02:24:28;24.98;;;12.57;;
62572;SDS011;48626;51.678;5.806;2023-11-21T02:26:53;29.13;;;11.52;;
62572;SDS011;48626;51.678;5.806;2023-11-21T02:29:20;28.77;;;12.10;;
62572;SDS011;48626;51.678;5.806;2023-11-21T02:31:53;26.60;;;11.93;;
62572;SDS011;48626;51.678;5.806;2023-11-21T02:34:20;31.02;;;11.25;;
62572;SDS011;48626;51.678;5.806;2023-11-21T02:36:47;23.83;;;10.60;;
62572;SDS011;48626;51.678;5.806;2023-11-21T02:39:16;24.92;;;11.05;;
62572;SDS011;48626;51.678;5.806;2023-11-21T02:41:42;48.83;;;12.00;;
62572;SDS011;48626;51.678;5.806;2023-11-21T02:44:08;25.48;;;11.40;;
62572;SDS011;48626;51.678;5.806;2023-11-21T02:46:35;19.73;;;9.95;;
62572;SDS011;48626;51.678;5.806;2023-11-21T02:49:02;25.17;;;10.77;;
62572;SDS011;48626;51.678;5.806;2023-11-21T02:51:29;23.58;;;11.63;;
62572;SDS011;48626;51.678;5.806;2023-11-21T02:53:55;46.85;;;11.77;;
62572;SDS011;48626;51.678;5.806;2023-11-21T02:56:25;18.60;;;11.00;;
62572;SDS011;48626;51.678;5.806;2023-11-21T02:58:51;18.77;;;10.77;;
62572;SDS011;48626;51.678;5.806;2023-11-21T03:01:17;19.48;;;10.60;;
62572;SDS011;48626;51.678;5.806;2023-11-21T03:03:43;21.08;;;9.90;;
62572;SDS011;48626;51.678;5.806;2023-11-21T03:06:09;17.38;;;10.05;;
62572;SDS011;48626;51.678;5.806;2023-11-21T03:08:34;38.25;;;11.23;;
62572;SDS011;48626;51.678;5.806;2023-11-21T03:11:00;18.23;;;10.57;;
62572;SDS011;48626;51.678;5.806;2023-11-21T03:13:28;17.90;;;10.93;;
62572;SDS011;48626;51.678;5.806;2023-11-21T03:15:53;18.80;;;9.98;;
62572;SDS011;48626;51.678;5.806;2023-11-21T03:18:19;25.48;;;10.90;;
62572;SDS011;48626;51.678;5.806;2023-11-21T03:20:47;18.92;;;10.93;;
62572;SDS011;48626;51.678;5.806;2023-11-21T03:23:12;16.15;;;9.70;;
62572;SDS011;48626;51.678;5.806;2023-11-21T03:25:38;21.70;;;11.07;;
62572;SDS011;48626;51.678;5.806;2023-11-21T03:28:04;25.65;;;10.48;;
62572;SDS011;48626;51.678;5.806;2023-11-21T03:30:30;18.70;;;10.77;;
62572;SDS011;48626;51.678;5.806;2023-11-21T03:32:55;17.23;;;10.43;;
62572;SDS011;48626;51.678;5.806;2023-11-21T03:35:21;21.15;;;10.88;;
62572;SDS011;48626;51.678;5.806;2023-11-21T03:37:48;19.75;;;9.88;;
62572;SDS011;48626;51.678;5.806;2023-11-21T03:40:13;47.42;;;11.48;;
62572;SDS011;48626;51.678;5.806;2023-11-21T03:42:39;20.50;;;11.02;;
62572;SDS011;48626;51.678;5.806;2023-11-21T03:45:05;24.23;;;11.60;;
62572;SDS011;48626;51.678;5.806;2023-11-21T03:47:31;19.60;;;10.25;;
62572;SDS011;48626;51.678;5.806;2023-11-21T03:49:57;19.48;;;10.60;;
62572;SDS011;48626;51.678;5.806;2023-11-21T03:52:23;17.50;;;11.43;;
62572;SDS011;48626;51.678;5.806;2023-11-21T03:54:49;20.50;;;10.88;;
62572;SDS011;48626;51.678;5.806;2023-11-21T03:57:15;17.40;;;10.30;;
62572;SDS011;48626;51.678;5.806;2023-11-21T03:59:41;26.95;;;11.52;;
62572;SDS011;48626;51.678;5.806;2023-11-21T04:02:07;21.48;;;10.50;;
62572;SDS011;48626;51.678;5.806;2023-11-21T04:04:34;26.48;;;10.73;;
62572;SDS011;48626;51.678;5.806;2023-11-21T04:07:02;24.60;;;10.82;;
62572;SDS011;48626;51.678;5.806;2023-11-21T04:09:29;20.92;;;11.07;;
62572;SDS011;48626;51.678;5.806;2023-11-21T04:11:54;18.48;;;10.25;;
62572;SDS011;48626;51.678;5.806;2023-11-21T04:14:20;26.30;;;11.15;;
62572;SDS011;48626;51.678;5.806;2023-11-21T04:16:46;18.13;;;10.13;;
62572;SDS011;48626;51.678;5.806;2023-11-21T04:19:12;15.75;;;9.95;;
62572;SDS011;48626;51.678;5.806;2023-11-21T04:21:43;18.15;;;10.63;;
62572;SDS011;48626;51.678;5.806;2023-11-21T04:24:09;17.58;;;10.30;;
62572;SDS011;48626;51.678;5.806;2023-11-21T04:26:35;18.33;;;10.57;;
62572;SDS011;48626;51.678;5.806;2023-11-21T04:29:01;24.50;;;11.10;;
62572;SDS011;48626;51.678;5.806;2023-11-21T04:31:27;17.95;;;11.02;;
62572;SDS011;48626;51.678;5.806;2023-11-21T04:33:52;26.35;;;11.50;;
62572;SDS011;48626;51.678;5.806;2023-11-21T04:36:18;21.40;;;10.73;;
62572;SDS011;48626;51.678;5.806;2023-11-21T04:38:44;25.30;;;11.35;;
62572;SDS011;48626;51.678;5.806;2023-11-21T04:41:10;18.15;;;10.82;;
62572;SDS011;48626;51.678;5.806;2023-11-21T04:43:38;18.38;;;10.40;;
62572;SDS011;48626;51.678;5.806;2023-11-21T04:46:03;25.90;;;11.20;;
62572;SDS011;48626;51.678;5.806;2023-11-21T04:48:29;25.92;;;12.23;;
62572;SDS011;48626;51.678;5.806;2023-11-21T04:50:55;19.60;;;11.50;;
62572;SDS011;48626;51.678;5.806;2023-11-21T04:53:21;19.95;;;11.30;;
62572;SDS011;48626;51.678;5.806;2023-11-21T04:55:47;19.70;;;11.27;;
62572;SDS011;48626;51.678;5.806;2023-11-21T04:58:13;20.00;;;11.13;;
62572;SDS011;48626;51.678;5.806;2023-11-21T05:00:39;20.88;;;11.07;;
62572;SDS011;48626;51.678;5.806;2023-11-21T05:03:05;39.03;;;11.70;;
62572;SDS011;48626;51.678;5.806;2023-11-21T05:05:32;21.08;;;11.23;;
62572;SDS011;48626;51.678;5.806;2023-11-21T05:07:59;23.33;;;11.40;;
62572;SDS011;48626;51.678;5.806;2023-11-21T05:10:24;22.83;;;11.20;;
62572;SDS011;48626;51.678;5.806;2023-11-21T05:12:50;22.60;;;11.68;;
62572;SDS011;48626;51.678;5.806;2023-11-21T05:15:16;19.45;;;11.32;;
62572;SDS011;48626;51.678;5.806;2023-11-21T05:17:42;25.25;;;11.27;;
62572;SDS011;48626;51.678;5.806;2023-11-21T05:20:12;24.75;;;12.38;;
62572;SDS011;48626;51.678;5.806;2023-11-21T05:22:42;19.05;;;11.40;;
62572;SDS011;48626;51.678;5.806;2023-11-21T05:25:08;22.38;;;11.88;;
62572;SDS011;48626;51.678;5.806;2023-11-21T05:27:34;26.70;;;11.35;;
62572;SDS011;48626;51.678;5.806;2023-11-21T05:30:03;23.70;;;12.48;;
62572;SDS011;48626;51.678;5.806;2023-11-21T05:32:30;25.55;;;11.52;;
62572;SDS011;48626;51.678;5.806;2023-11-21T05:34:56;25.10;;;11.45;;
62572;SDS011;48626;51.678;5.806;2023-11-21T05:37:22;22.75;;;11.05;;
62572;SDS011;48626;51.678;5.806;2023-11-21T05:39:52;24.67;;;12.35;;
62572;SDS011;48626;51.678;5.806;2023-11-21T05:42:21;24.63;;;12.43;;
62572;SDS011;48626;51.678;5.806;2023-11-21T05:44:48;25.65;;;12.82;;
62572;SDS011;48626;51.678;5.806;2023-11-21T05:47:14;24.10;;;12.60;;
62572;SDS011;48626;51.678;5.806;2023-11-21T05:49:40;25.08;;;11.77;;
62572;SDS011;48626;51.678;5.806;2023-11-21T05:52:05;25.40;;;12.68;;
62572;SDS011;48626;51.678;5.806;2023-11-21T05:54:32;21.95;;;11.40;;
62572;SDS011;48626;51.678;5.806;2023-11-21T05:56:57;19.63;;;10.63;;
62572;SDS011;48626;51.678;5.806;2023-11-21T05:59:23;24.10;;;11.02;;
62572;SDS011;48626;51.678;5.806;2023-11-21T06:01:49;22.30;;;10.73;;
62572;SDS011;48626;51.678;5.806;2023-11-21T06:04:15;23.35;;;11.68;;
62572;SDS011;48626;51.678;5.806;2023-11-21T06:06:40;22.55;;;11.15;;
62572;SDS011;48626;51.678;5.806;2023-11-21T06:09:06;24.17;;;12.32;;
62572;SDS011;48626;51.678;5.806;2023-11-21T06:11:34;21.40;;;12.10;;
62572;SDS011;48626;51.678;5.806;2023-11-21T06:14:00;19.65;;;11.50;;
62572;SDS011;48626;51.678;5.806;2023-11-21T06:16:25;18.67;;;11.10;;
62572;SDS011;48626;51.678;5.806;2023-11-21T06:18:52;22.13;;;11.15;;
62572;SDS011;48626;51.678;5.806;2023-11-21T06:21:18;19.25;;;10.70;;
62572;SDS011;48626;51.678;5.806;2023-11-21T06:23:44;19.88;;;11.25;;
62572;SDS011;48626;51.678;5.806;2023-11-21T06:26:09;20.67;;;11.07;;
62572;SDS011;48626;51.678;5.806;2023-11-21T06:28:35;17.30;;;10.35;;
62572;SDS011;48626;51.678;5.806;2023-11-21T06:31:01;18.73;;;10.77;;
62572;SDS011;48626;51.678;5.806;2023-11-21T06:33:33;18.67;;;11.50;;
62572;SDS011;48626;51.678;5.806;2023-11-21T06:35:59;21.48;;;10.98;;
62572;SDS011;48626;51.678;5.806;2023-11-21T06:38:28;17.45;;;10.23;;
62572;SDS011;48626;51.678;5.806;2023-11-21T06:40:55;19.45;;;10.52;;
62572;SDS011;48626;51.678;5.806;2023-11-21T06:43:23;17.85;;;9.85;;
62572;SDS011;48626;51.678;5.806;2023-11-21T06:45:49;16.73;;;10.60;;
62572;SDS011;48626;51.678;5.806;2023-11-21T06:48:14;21.70;;;10.15;;
62572;SDS011;48626;51.678;5.806;2023-11-21T06:50:40;20.58;;;10.48;;
62572;SDS011;48626;51.678;5.806;2023-11-21T06:53:06;16.98;;;9.60;;
62572;SDS011;48626;51.678;5.806;2023-11-21T06:55:33;17.13;;;10.15;;
62572;SDS011;48626;51.678;5.806;2023-11-21T06:57:59;16.75;;;10.27;;
62572;SDS011;48626;51.678;5.806;2023-11-21T07:00:25;17.13;;;11.07;;
62572;SDS011;48626;51.678;5.806;2023-11-21T07:02:53;19.45;;;11.05;;
62572;SDS011;48626;51.678;5.806;2023-11-21T07:05:20;21.45;;;10.77;;
62572;SDS011;48626;51.678;5.806;2023-11-21T07:07:46;19.05;;;11.20;;
62572;SDS011;48626;51.678;5.806;2023-11-21T07:10:13;17.10;;;11.13;;
62572;SDS011;48626;51.678;5.806;2023-11-21T07:12:39;16.02;;;10.88;;
62572;SDS011;48626;51.678;5.806;2023-11-21T07:15:05;17.95;;;11.18;;
62572;SDS011;48626;51.678;5.806;2023-11-21T07:17:34;18.98;;;11.40;;
62572;SDS011;48626;51.678;5.806;2023-11-21T07:20:03;20.17;;;12.02;;
62572;SDS011;48626;51.678;5.806;2023-11-21T07:22:29;19.98;;;11.95;;
62572;SDS011;48626;51.678;5.806;2023-11-21T07:24:55;20.00;;;11.85;;
62572;SDS011;48626;51.678;5.806;2023-11-21T07:27:23;23.33;;;12.45;;
62572;SDS011;48626;51.678;5.806;2023-11-21T07:29:49;20.90;;;12.30;;
62572;SDS011;48626;51.678;5.806;2023-11-21T07:32:15;25.67;;;13.68;;
62572;SDS011;48626;51.678;5.806;2023-11-21T07:34:41;18.50;;;12.07;;
62572;SDS011;48626;51.678;5.806;2023-11-21T07:37:07;21.40;;;13.00;;
62572;SDS011;48626;51.678;5.806;2023-11-21T07:39:34;23.05;;;13.13;;
62572;SDS011;48626;51.678;5.806;2023-11-21T07:42:01;20.73;;;11.55;;
62572;SDS011;48626;51.678;5.806;2023-11-21T07:44:27;22.42;;;12.52;;
62572;SDS011;48626;51.678;5.806;2023-11-21T07:46:54;22.20;;;12.65;;
62572;SDS011;48626;51.678;5.806;2023-11-21T07:49:22;20.02;;;12.27;;
62572;SDS011;48626;51.678;5.806;2023-11-21T07:51:51;18.33;;;12.15;;
62572;SDS011;48626;51.678;5.806;2023-11-21T07:54:17;22.98;;;11.77;;
62572;SDS011;48626;51.678;5.806;2023-11-21T07:56:43;23.13;;;12.68;;
62572;SDS011;48626;51.678;5.806;2023-11-21T07:59:09;23.90;;;13.38;;
62572;SDS011;48626;51.678;5.806;2023-11-21T08:01:34;21.63;;;11.60;;
62572;SDS011;48626;51.678;5.806;2023-11-21T08:04:00;19.80;;;12.18;;
62572;SDS011;48626;51.678;5.806;2023-11-21T08:06:31;20.80;;;11.85;;
62572;SDS011;48626;51.678;5.806;2023-11-21T08:08:57;22.13;;;12.20;;
62572;SDS011;48626;51.678;5.806;2023-11-21T08:11:23;19.25;;;11.32;;
62572;SDS011;48626;51.678;5.806;2023-11-21T08:13:49;22.95;;;11.70;;
62572;SDS011;48626;51.678;5.806;2023-11-21T08:16:15;18.45;;;11.50;;
62572;SDS011;48626;51.678;5.806;2023-11-21T08:18:41;25.30;;;11.70;;
62572;SDS011;48626;51.678;5.806;2023-11-21T08:21:07;19.23;;;11.55;;
62572;SDS011;48626;51.678;5.806;2023-11-21T08:23:33;21.33;;;12.43;;
62572;SDS011;48626;51.678;5.806;2023-11-21T08:25:59;24.88;;;12.73;;
62572;SDS011;48626;51.678;5.806;2023-11-21T08:28:25;20.05;;;11.73;;
62572;SDS011;48626;51.678;5.806;2023-11-21T08:30:53;23.38;;;13.40;;
62572;SDS011;48626;51.678;5.806;2023-11-21T08:33:21;21.50;;;13.02;;
62572;SDS011;48626;51.678;5.806;2023-11-21T08:35:47;24.48;;;13.02;;
62572;SDS011;48626;51.678;5.806;2023-11-21T08:38:13;26.95;;;13.85;;
62572;SDS011;48626;51.678;5.806;2023-11-21T08:40:39;23.80;;;13.20;;
62572;SDS011;48626;51.678;5.806;2023-11-21T08:43:04;26.80;;;13.27;;
62572;SDS011;48626;51.678;5.806;2023-11-21T08:45:30;25.80;;;13.13;;
62572;SDS011;48626;51.678;5.806;2023-11-21T08:47:59;20.38;;;11.57;;
62572;SDS011;48626;51.678;5.806;2023-11-21T08:50:25;26.92;;;13.50;;
62572;SDS011;48626;51.678;5.806;2023-11-21T08:52:50;20.23;;;11.98;;
62572;SDS011;48626;51.678;5.806;2023-11-21T08:55:16;21.88;;;11.80;;
62572;SDS011;48626;51.678;5.806;2023-11-21T08:57:43;21.90;;;13.30;;
62572;SDS011;48626;51.678;5.806;2023-11-21T09:00:10;23.15;;;12.68;;
62572;SDS011;48626;51.678;5.806;2023-11-21T09:02:37;23.63;;;12.98;;
62572;SDS011;48626;51.678;5.806;2023-11-21T09:05:07;26.13;;;13.60;;
62572;SDS011;48626;51.678;5.806;2023-11-21T09:07:34;26.15;;;13.52;;
62572;SDS011;48626;51.678;5.806;2023-11-21T09:10:00;27.00;;;13.27;;
62572;SDS011;48626;51.678;5.806;2023-11-21T09:12:27;25.25;;;13.75;;
62572;SDS011;48626;51.678;5.806;2023-11-21T09:14:52;24.77;;;13.43;;
62572;SDS011;48626;51.678;5.806;2023-11-21T09:17:18;24.35;;;13.68;;
62572;SDS011;48626;51.678;5.806;2023-11-21T09:19:44;31.58;;;14.30;;
62572;SDS011;48626;51.678;5.806;2023-11-21T09:24:40;27.42;;;13.35;;
62572;SDS011;48626;51.678;5.806;2023-11-21T09:27:05;27.73;;;14.20;;
62572;SDS011;48626;51.678;5.806;2023-11-21T09:29:31;28.00;;;13.68;;
62572;SDS011;48626;51.678;5.806;2023-11-21T09:31:57;29.20;;;13.70;;
62572;SDS011;48626;51.678;5.806;2023-11-21T09:34:26;32.70;;;14.82;;
62572;SDS011;48626;51.678;5.806;2023-11-21T09:36:52;32.10;;;15.55;;
62572;SDS011;48626;51.678;5.806;2023-11-21T09:39:18;30.95;;;15.10;;
62572;SDS011;48626;51.678;5.806;2023-11-21T09:41:46;45.35;;;15.82;;
62572;SDS011;48626;51.678;5.806;2023-11-21T09:44:27;30.63;;;15.40;;
62572;SDS011;48626;51.678;5.806;2023-11-21T09:47:02;32.13;;;15.45;;
62572;SDS011;48626;51.678;5.806;2023-11-21T09:49:28;31.08;;;16.60;;
62572;SDS011;48626;51.678;5.806;2023-11-21T09:52:00;33.17;;;14.65;;
62572;SDS011;48626;51.678;5.806;2023-11-21T09:54:28;32.28;;;15.40;;
62572;SDS011;48626;51.678;5.806;2023-11-21T09:56:56;30.90;;;15.38;;
62572;SDS011;48626;51.678;5.806;2023-11-21T09:59:25;34.45;;;14.35;;
62572;SDS011;48626;51.678;5.806;2023-11-21T10:01:55;36.58;;;15.63;;
62572;SDS011;48626;51.678;5.806;2023-11-21T10:04:23;32.63;;;14.20;;
62572;SDS011;48626;51.678;5.806;2023-11-21T10:06:49;31.52;;;15.27;;
62572;SDS011;48626;51.678;5.806;2023-11-21T10:09:16;27.85;;;14.35;;
62572;SDS011;48626;51.678;5.806;2023-11-21T10:11:42;28.58;;;14.35;;
62572;SDS011;48626;51.678;5.806;2023-11-21T10:14:12;30.30;;;13.45;;
62572;SDS011;48626;51.678;5.806;2023-11-21T10:19:05;28.58;;;13.75;;
62572;SDS011;48626;51.678;5.806;2023-11-21T10:21:35;33.78;;;13.95;;
62572;SDS011;48626;51.678;5.806;2023-11-21T10:24:00;32.65;;;13.93;;
62572;SDS011;48626;51.678;5.806;2023-11-21T10:26:27;36.63;;;15.18;;
62572;SDS011;48626;51.678;5.806;2023-11-21T10:29:00;35.42;;;15.75;;
62572;SDS011;48626;51.678;5.806;2023-11-21T10:31:31;35.17;;;14.55;;
62572;SDS011;48626;51.678;5.806;2023-11-21T10:34:11;30.88;;;14.27;;
62572;SDS011;48626;51.678;5.806;2023-11-21T10:36:37;29.65;;;14.43;;
62572;SDS011;48626;51.678;5.806;2023-11-21T10:39:02;37.88;;;16.45;;
62572;SDS011;48626;51.678;5.806;2023-11-21T10:41:28;32.35;;;15.50;;
62572;SDS011;48626;51.678;5.806;2023-11-21T10:43:54;33.50;;;16.73;;
62572;SDS011;48626;51.678;5.806;2023-11-21T10:46:21;35.90;;;16.45;;
62572;SDS011;48626;51.678;5.806;2023-11-21T10:48:57;42.40;;;17.98;;
62572;SDS011;48626;51.678;5.806;2023-11-21T10:51:23;39.10;;;16.50;;
62572;SDS011;48626;51.678;5.806;2023-11-21T10:53:51;39.33;;;16.38;;
62572;SDS011;48626;51.678;5.806;2023-11-21T10:56:26;40.47;;;16.63;;
62572;SDS011;48626;51.678;5.806;2023-11-21T10:58:55;41.72;;;18.10;;
62572;SDS011;48626;51.678;5.806;2023-11-21T11:01:34;41.85;;;17.27;;
62572;SDS011;48626;51.678;5.806;2023-11-21T11:04:22;40.13;;;16.95;;
62572;SDS011;48626;51.678;5.806;2023-11-21T11:07:25;37.85;;;15.80;;
62572;SDS011;48626;51.678;5.806;2023-11-21T11:12:49;37.08;;;16.40;;
62572;SDS011;48626;51.678;5.806;2023-11-21T11:15:25;36.28;;;17.27;;
62572;SDS011;48626;51.678;5.806;2023-11-21T11:18:01;34.42;;;16.17;;
62572;SDS011;48626;51.678;5.806;2023-11-21T11:20:31;31.25;;;16.77;;
62572;SDS011;48626;51.678;5.806;2023-11-21T11:25:52;32.40;;;15.18;;
62572;SDS011;48626;51.678;5.806;2023-11-21T11:28:35;30.63;;;15.55;;
62572;SDS011;48626;51.678;5.806;2023-11-21T11:34:17;33.85;;;15.07;;
62572;SDS011;48626;51.678;5.806;2023-11-21T11:39:35;34.53;;;15.85;;
62572;SDS011;48626;51.678;5.806;2023-11-21T11:42:11;28.05;;;15.75;;
62572;SDS011;48626;51.678;5.806;2023-11-21T11:47:26;32.88;;;16.40;;
62572;SDS011;48626;51.678;5.806;2023-11-21T11:52:51;32.08;;;14.32;;
62572;SDS011;48626;51.678;5.806;2023-11-21T11:55:22;37.17;;;14.52;;
62572;SDS011;48626;51.678;5.806;2023-11-21T12:02:54;33.85;;;14.90;;
62572;SDS011;48626;51.678;5.806;2023-11-21T12:05:25;37.53;;;15.75;;
62572;SDS011;48626;51.678;5.806;2023-11-21T12:07:56;35.97;;;15.77;;
62572;SDS011;48626;51.678;5.806;2023-11-21T12:10:27;42.20;;;16.23;;
62572;SDS011;48626;51.678;5.806;2023-11-21T12:12:57;39.72;;;16.30;;
62572;SDS011;48626;51.678;5.806;2023-11-21T12:15:25;42.45;;;16.70;;
62572;SDS011;48626;51.678;5.806;2023-11-21T12:17:51;38.22;;;16.63;;
62572;SDS011;48626;51.678;5.806;2023-11-21T12:20:21;37.78;;;16.92;;
62572;SDS011;48626;51.678;5.806;2023-11-21T12:22:49;39.13;;;15.57;;
62572;SDS011;48626;51.678;5.806;2023-11-21T12:25:16;42.15;;;16.95;;
62572;SDS011;48626;51.678;5.806;2023-11-21T12:27:44;44.90;;;17.20;;
62572;SDS011;48626;51.678;5.806;2023-11-21T12:30:11;46.28;;;17.30;;
62572;SDS011;48626;51.678;5.806;2023-11-21T12:32:42;41.78;;;16.63;;
62572;SDS011;48626;51.678;5.806;2023-11-21T12:35:09;46.38;;;18.00;;
62572;SDS011;48626;51.678;5.806;2023-11-21T12:37:38;48.38;;;17.45;;
62572;SDS011;48626;51.678;5.806;2023-11-21T12:40:05;49.53;;;19.02;;
62572;SDS011;48626;51.678;5.806;2023-11-21T12:42:40;41.92;;;17.13;;
62572;SDS011;48626;51.678;5.806;2023-11-21T12:45:07;41.33;;;16.40;;
62572;SDS011;48626;51.678;5.806;2023-11-21T12:47:48;46.78;;;17.98;;
62572;SDS011;48626;51.678;5.806;2023-11-21T12:50:15;37.47;;;16.00;;
62572;SDS011;48626;51.678;5.806;2023-11-21T12:52:47;42.42;;;16.13;;
62572;SDS011;48626;51.678;5.806;2023-11-21T12:55:19;40.72;;;15.75;;
62572;SDS011;48626;51.678;5.806;2023-11-21T12:57:50;40.45;;;16.10;;
62572;SDS011;48626;51.678;5.806;2023-11-21T13:00:19;33.42;;;14.80;;
62572;SDS011;48626;51.678;5.806;2023-11-21T13:02:56;37.28;;;15.40;;
62572;SDS011;48626;51.678;5.806;2023-11-21T13:05:26;35.30;;;15.93;;
62572;SDS011;48626;51.678;5.806;2023-11-21T13:10:23;31.23;;;13.52;;
62572;SDS011;48626;51.678;5.806;2023-11-21T13:12:51;35.72;;;15.93;;
62572;SDS011;48626;51.678;5.806;2023-11-21T13:15:17;34.47;;;15.30;;
62572;SDS011;48626;51.678;5.806;2023-11-21T13:17:43;29.58;;;14.25;;
62572;SDS011;48626;51.678;5.806;2023-11-21T13:20:12;31.65;;;14.77;;
62572;SDS011;48626;51.678;5.806;2023-11-21T13:22:48;30.33;;;14.57;;
62572;SDS011;48626;51.678;5.806;2023-11-21T13:25:17;32.58;;;13.55;;
62572;SDS011;48626;51.678;5.806;2023-11-21T13:27:45;29.15;;;13.45;;
62572;SDS011;48626;51.678;5.806;2023-11-21T13:30:14;29.20;;;12.45;;
62572;SDS011;48626;51.678;5.806;2023-11-21T13:32:48;30.25;;;12.40;;
62572;SDS011;48626;51.678;5.806;2023-11-21T13:35:16;24.83;;;11.75;;
62572;SDS011;48626;51.678;5.806;2023-11-21T13:37:55;24.70;;;11.70;;
62572;SDS011;48626;51.678;5.806;2023-11-21T13:40:25;23.50;;;11.27;;
62572;SDS011;48626;51.678;5.806;2023-11-21T13:42:55;24.88;;;11.23;;
62572;SDS011;48626;51.678;5.806;2023-11-21T13:45:27;24.90;;;10.60;;
62572;SDS011;48626;51.678;5.806;2023-11-21T13:47:53;24.85;;;11.05;;
62572;SDS011;48626;51.678;5.806;2023-11-21T13:50:26;19.25;;;9.55;;
62572;SDS011;48626;51.678;5.806;2023-11-21T13:53:01;21.15;;;9.82;;
62572;SDS011;48626;51.678;5.806;2023-11-21T13:55:34;19.10;;;9.38;;
62572;SDS011;48626;51.678;5.806;2023-11-21T13:58:01;19.38;;;9.65;;
62572;SDS011;48626;51.678;5.806;2023-11-21T14:00:29;19.10;;;8.77;;
62572;SDS011;48626;51.678;5.806;2023-11-21T14:05:44;17.50;;;7.88;;
62572;SDS011;48626;51.678;5.806;2023-11-21T14:08:12;17.02;;;7.70;;
62572;SDS011;48626;51.678;5.806;2023-11-21T14:10:45;15.45;;;7.75;;
62572;SDS011;48626;51.678;5.806;2023-11-21T14:13:15;15.77;;;8.13;;
62572;SDS011;48626;51.678;5.806;2023-11-21T14:15:42;21.42;;;9.85;;
62572;SDS011;48626;51.678;5.806;2023-11-21T14:18:11;21.58;;;10.15;;
62572;SDS011;48626;51.678;5.806;2023-11-21T14:20:39;22.13;;;10.38;;
62572;SDS011;48626;51.678;5.806;2023-11-21T14:23:06;19.85;;;9.70;;
62572;SDS011;48626;51.678;5.806;2023-11-21T14:25:36;26.10;;;10.57;;
62572;SDS011;48626;51.678;5.806;2023-11-21T14:28:02;22.17;;;11.10;;
62572;SDS011;48626;51.678;5.806;2023-11-21T14:30:29;24.90;;;11.82;;
62572;SDS011;48626;51.678;5.806;2023-11-21T14:32:58;23.05;;;11.48;;
62572;SDS011;48626;51.678;5.806;2023-11-21T14:35:24;29.38;;;13.07;;
62572;SDS011;48626;51.678;5.806;2023-11-21T14:37:51;32.50;;;12.90;;
62572;SDS011;48626;51.678;5.806;2023-11-21T14:40:17;29.42;;;11.88;;
62572;SDS011;48626;51.678;5.806;2023-11-21T14:42:47;26.77;;;12.57;;
62572;SDS011;48626;51.678;5.806;2023-11-21T14:45:13;28.85;;;11.82;;
62572;SDS011;48626;51.678;5.806;2023-11-21T14:47:44;26.40;;;12.57;;
62572;SDS011;48626;51.678;5.806;2023-11-21T14:50:16;26.65;;;12.18;;
62572;SDS011;48626;51.678;5.806;2023-11-21T14:53:08;31.10;;;12.23;;
62572;SDS011;48626;51.678;5.806;2023-11-21T14:55:36;28.15;;;10.95;;
62572;SDS011;48626;51.678;5.806;2023-11-21T14:58:18;30.80;;;11.95;;
62572;SDS011;48626;51.678;5.806;2023-11-21T15:00:54;29.00;;;11.90;;
62572;SDS011;48626;51.678;5.806;2023-11-21T15:03:24;28.60;;;12.43;;